TimeEDT,TemperatureF,Dew PointF,Humidity,Sea Level PressureIn,VisibilityMPH,Wind Direction,Wind SpeedMPH,Gust SpeedMPH,PrecipitationIn,Events,Conditions,WindDirDegrees,DateUTC
12:15 AM,68.7,68.4,99,30.30,7.0,Calm,Calm,-,N/A,,Clear,0,2013-07-16 04:15:00
12:35 AM,68.5,68.2,99,30.30,7.0,Calm,Calm,-,N/A,,Clear,0,2013-07-16 04:35:00
12:55 AM,68.5,68.4,99,30.30,7.0,Calm,Calm,-,N/A,,Clear,0,2013-07-16 04:55:00
1:15 AM,68.0,67.8,99,30.31,7.0,Calm,Calm,-,N/A,,Clear,0,2013-07-16 05:15:00
1:35 AM,67.1,67.1,100,30.31,7.0,Calm,Calm,-,N/A,,Clear,0,2013-07-16 05:35:00
1:55 AM,66.4,66.2,99,30.31,5.0,Calm,Calm,-,N/A,,Clear,0,2013-07-16 05:55:00
2:15 AM,66.4,66.2,99,30.31,4.0,Calm,Calm,-,N/A,,Clear,0,2013-07-16 06:15:00
2:35 AM,66.7,66.6,99,30.31,4.0,Calm,Calm,-,N/A,,Clear,0,2013-07-16 06:35:00
2:55 AM,65.8,65.8,100,30.31,5.0,Calm,Calm,-,N/A,,Clear,0,2013-07-16 06:55:00
3:15 AM,66.6,66.6,100,30.30,0.5,Calm,Calm,-,N/A,Fog,Fog,0,2013-07-16 07:15:00
3:35 AM,66.4,66.4,100,30.30,5.0,Calm,Calm,-,N/A,,Clear,0,2013-07-16 07:35:00
3:55 AM,66.6,66.6,100,30.30,4.0,Calm,Calm,-,N/A,,Scattered Clouds,0,2013-07-16 07:55:00
4:15 AM,66.2,66.2,100,30.30,5.0,Calm,Calm,-,N/A,,Clear,0,2013-07-16 08:15:00
4:35 AM,66.9,66.9,100,30.30,5.0,Calm,Calm,-,N/A,,Clear,0,2013-07-16 08:35:00
4:55 AM,66.9,66.9,100,30.29,7.0,Calm,Calm,-,N/A,,Clear,0,2013-07-16 08:55:00
5:15 AM,68.4,68.4,100,30.29,4.0,Calm,Calm,-,N/A,,Scattered Clouds,0,2013-07-16 09:15:00
5:35 AM,65.3,65.3,100,30.30,2.5,Calm,Calm,-,N/A,,Scattered Clouds,0,2013-07-16 09:35:00
5:55 AM,65.3,65.3,100,30.30,5.0,Calm,Calm,-,N/A,,Clear,0,2013-07-16 09:55:00
6:15 AM,65.3,65.3,100,30.30,5.0,Calm,Calm,-,N/A,,Clear,0,2013-07-16 10:15:00
6:35 AM,65.3,65.3,100,30.30,1.8,Calm,Calm,-,N/A,,Mist,0,2013-07-16 10:35:00
6:55 AM,65.7,65.7,100,30.31,5.0,Calm,Calm,-,N/A,,Clear,0,2013-07-16 10:55:00
7:15 AM,67.1,67.1,100,30.31,5.0,Calm,Calm,-,N/A,,Clear,0,2013-07-16 11:15:00
7:35 AM,70.0,70.0,100,30.31,10.0,Calm,Calm,-,N/A,,Clear,0,2013-07-16 11:35:00
7:55 AM,71.6,70.5,96,30.31,10.0,Calm,Calm,-,N/A,,Clear,0,2013-07-16 11:55:00
8:15 AM,74.3,70.2,87,30.31,10.0,Calm,Calm,-,N/A,,Clear,0,2013-07-16 12:15:00
8:35 AM,74.7,70.2,86,30.31,10.0,Calm,Calm,-,N/A,,Clear,0,2013-07-16 12:35:00
8:55 AM,75.9,70.5,83,30.31,10.0,Calm,Calm,-,N/A,,Clear,0,2013-07-16 12:55:00
9:15 AM,78.1,71.4,80,30.31,10.0,Calm,Calm,-,N/A,,Clear,0,2013-07-16 13:15:00
9:35 AM,80.2,72.3,77,30.31,10.0,Calm,Calm,-,N/A,,Clear,0,2013-07-16 13:35:00
9:55 AM,82.4,70.9,68,30.30,10.0,Calm,Calm,-,N/A,,Clear,0,2013-07-16 13:55:00
10:15 AM,83.3,70.2,64,30.31,10.0,NNW,3.5,-,N/A,,Clear,330,2013-07-16 14:15:00
10:35 AM,84.4,70.3,63,30.31,10.0,Calm,Calm,-,N/A,,Clear,0,2013-07-16 14:35:00
10:55 AM,85.6,71.4,62,30.30,10.0,Calm,Calm,-,N/A,,Clear,0,2013-07-16 14:55:00
11:15 AM,86.4,72.7,64,30.30,10.0,NNW,3.5,-,N/A,,Clear,340,2013-07-16 15:15:00
11:55 AM,87.4,72.1,60,30.29,10.0,North,3.5,-,N/A,,Clear,10,2013-07-16 15:55:00
12:15 PM,88.2,72.0,59,30.28,10.0,Calm,Calm,-,N/A,,Clear,0,2013-07-16 16:15:00
12:35 PM,88.7,72.7,59,30.28,10.0,Calm,Calm,-,N/A,,Clear,0,2013-07-16 16:35:00
12:55 PM,89.1,72.0,57,30.28,10.0,Calm,Calm,-,N/A,,Clear,0,2013-07-16 16:55:00
1:15 PM,90.1,73.2,57,30.28,10.0,Calm,Calm,-,N/A,,Clear,0,2013-07-16 17:15:00
1:35 PM,89.8,74.1,60,30.27,10.0,Calm,Calm,-,N/A,,Scattered Clouds,0,2013-07-16 17:35:00
1:55 PM,89.6,71.2,55,30.26,10.0,NNE,3.5,-,N/A,,Scattered Clouds,20,2013-07-16 17:55:00
2:15 PM,90.7,70.9,52,30.26,10.0,North,3.5,-,N/A,,Clear,350,2013-07-16 18:15:00
2:35 PM,88.7,73.4,60,30.26,10.0,Calm,Calm,-,N/A,,Scattered Clouds,0,2013-07-16 18:35:00
2:55 PM,91.0,72.9,55,30.25,10.0,NNE,3.5,-,N/A,,Scattered Clouds,30,2013-07-16 18:55:00
3:15 PM,91.0,70.7,51,30.25,10.0,Calm,Calm,-,N/A,,Mostly Cloudy,0,2013-07-16 19:15:00
3:35 PM,91.0,71.8,53,30.24,10.0,East,4.6,-,N/A,,Scattered Clouds,80,2013-07-16 19:35:00
4:55 PM,91.9,69.8,48,30.22,10.0,North,3.5,-,N/A,,Clear,10,2013-07-16 20:55:00
5:15 PM,91.8,66.7,44,30.23,10.0,Calm,Calm,-,N/A,,Clear,0,2013-07-16 21:15:00
5:35 PM,91.9,67.5,44,30.23,10.0,Calm,Calm,-,N/A,,Clear,0,2013-07-16 21:35:00
5:55 PM,91.4,69.8,49,30.22,10.0,Calm,Calm,-,N/A,,Clear,0,2013-07-16 21:55:00
6:15 PM,91.0,70.7,51,30.23,10.0,Calm,Calm,-,N/A,,Clear,0,2013-07-16 22:15:00
6:35 PM,90.9,71.1,52,30.23,10.0,Calm,Calm,-,N/A,,Clear,0,2013-07-16 22:35:00
6:55 PM,90.7,72.1,54,30.23,10.0,Calm,Calm,-,N/A,,Clear,0,2013-07-16 22:55:00
7:15 PM,88.5,78.1,71,30.23,10.0,Calm,Calm,-,N/A,,Clear,0,2013-07-16 23:15:00
7:35 PM,85.5,75.7,73,30.23,10.0,Calm,Calm,-,N/A,,Clear,0,2013-07-16 23:35:00
7:55 PM,84.0,75.2,75,30.23,10.0,WNW,4.6,-,N/A,,Scattered Clouds,290,2013-07-16 23:55:00
8:15 PM,82.6,75.6,79,30.23,10.0,West,3.5,-,N/A,,Scattered Clouds,280,2013-07-17 00:15:00
8:35 PM,82.6,73.9,75,30.23,10.0,Calm,Calm,-,N/A,,Clear,0,2013-07-17 00:35:00
8:55 PM,80.6,73.6,79,30.25,10.0,Calm,Calm,-,N/A,,Clear,0,2013-07-17 00:55:00
9:15 PM,77.2,73.9,90,30.25,10.0,Calm,Calm,-,N/A,,Clear,0,2013-07-17 01:15:00
9:35 PM,77.0,73.0,88,30.26,10.0,Calm,Calm,-,N/A,,Clear,0,2013-07-17 01:35:00
9:55 PM,76.5,73.0,89,30.26,10.0,Calm,Calm,-,N/A,,Clear,0,2013-07-17 01:55:00
10:15 PM,76.3,73.4,91,30.26,10.0,Calm,Calm,-,N/A,,Clear,0,2013-07-17 02:15:00
10:35 PM,75.4,73.2,93,30.26,10.0,Calm,Calm,-,N/A,,Clear,0,2013-07-17 02:35:00
10:55 PM,74.7,73.4,96,30.26,10.0,Calm,Calm,-,N/A,,Clear,0,2013-07-17 02:55:00
11:15 PM,74.7,73.4,96,30.25,10.0,Calm,Calm,-,N/A,,Clear,0,2013-07-17 03:15:00
11:35 PM,73.8,72.9,97,30.24,7.0,Calm,Calm,-,N/A,,Clear,0,2013-07-17 03:35:00
11:55 PM,74.1,73.2,97,30.25,10.0,Calm,Calm,-,N/A,,Clear,0,2013-07-17 03:55:00